Terminal Aerodrome Forecast
Issued by NWS Cleveland, OH

Home | Current Version | Previous Version | Text Only | Print | Product List | Glossary On
Versions: 1 2 3 4 5 6 7 8 9 10 11 12 13 14 15 16 17
689
FTUS41 KCLE 242339
TAFMFD
TAF
KMFD 242339Z 2500/2524 27010KT P6SM SCT080
     FM250200 24006KT P6SM SCT100
     FM251500 27015G22KT P6SM SCT050
     FM252000 27015G22KT P6SM BKN060=

USA.gov is the U.S. government's official web portal to all federal, state and local government web resources and services.